createdAt,value
2023-04-30T00:02:20.503Z,13.04
2023-04-30T00:05:22.352Z,13.03
2023-04-30T00:08:24.004Z,13.01
2023-04-30T00:11:25.782Z,13.01
2023-04-30T00:14:27.562Z,12.99
2023-04-30T00:17:29.442Z,12.99
2023-04-30T00:20:31.889Z,12.97
2023-04-30T00:23:33.664Z,12.96
2023-04-30T00:26:35.310Z,12.95
2023-04-30T00:29:37.203Z,12.93
2023-04-30T00:32:39.112Z,12.94
2023-04-30T00:35:41.774Z,12.92
2023-04-30T00:38:43.552Z,12.90
2023-04-30T00:41:45.630Z,12.89
2023-04-30T00:44:47.566Z,12.88
2023-04-30T00:47:49.662Z,12.89
2023-04-30T00:50:51.369Z,12.87
2023-04-30T00:53:53.502Z,12.87
2023-04-30T00:56:55.810Z,12.86
2023-04-30T00:59:58.013Z,12.84
2023-04-30T01:03:00.277Z,12.83
2023-04-30T01:06:02.806Z,12.81
2023-04-30T01:09:04.885Z,12.79
2023-04-30T01:12:20.928Z,12.77
2023-04-30T01:15:37.795Z,12.75
2023-04-30T01:18:47.720Z,12.75
2023-04-30T01:21:50.210Z,12.75
2023-04-30T01:25:00.949Z,12.74
2023-04-30T01:28:16.004Z,12.73
2023-04-30T01:31:19.420Z,12.72
2023-04-30T01:34:21.210Z,12.71
2023-04-30T01:37:37.922Z,12.70
2023-04-30T01:40:45.774Z,12.68
2023-04-30T01:44:11.631Z,12.65
2023-04-30T01:47:29.938Z,12.64
2023-04-30T01:50:46.781Z,12.62
2023-04-30T01:53:49.038Z,12.62
2023-04-30T01:56:55.993Z,12.62
2023-04-30T01:59:57.909Z,12.58
2023-04-30T02:02:59.789Z,12.53
2023-04-30T02:06:01.636Z,12.49
2023-04-30T02:09:05.584Z,12.43
2023-04-30T02:12:07.444Z,12.36
2023-04-30T02:15:09.951Z,12.30
2023-04-30T02:18:11.720Z,12.25
2023-04-30T02:21:13.779Z,12.16
2023-04-30T02:24:15.468Z,12.09
2023-04-30T02:27:17.654Z,12.02
2023-04-30T02:30:20.290Z,11.95
2023-04-30T02:33:22.311Z,11.87
2023-04-30T02:36:23.997Z,11.81
2023-04-30T02:39:26.419Z,11.76
2023-04-30T02:42:28.175Z,11.74
2023-04-30T02:45:31.493Z,11.70
2023-04-30T02:48:33.220Z,11.68
2023-04-30T02:51:34.886Z,11.65
2023-04-30T02:54:36.575Z,11.62
2023-04-30T02:57:38.472Z,11.59
2023-04-30T03:00:40.267Z,11.56
2023-04-30T03:03:42.003Z,11.53
2023-04-30T03:06:43.986Z,11.49
2023-04-30T03:09:46.160Z,11.48
2023-04-30T03:12:47.909Z,11.47
2023-04-30T03:15:49.743Z,11.45
2023-04-30T03:18:51.479Z,11.44
2023-04-30T03:21:54.482Z,11.44
2023-04-30T03:24:56.204Z,11.43
2023-04-30T03:27:57.969Z,11.43
2023-04-30T03:31:04.582Z,11.42
2023-04-30T03:34:06.483Z,11.40
2023-04-30T03:37:08.429Z,11.39
2023-04-30T03:40:11.034Z,11.38
2023-04-30T03:43:12.728Z,11.38
2023-04-30T03:46:14.512Z,11.37
2023-04-30T03:49:16.245Z,11.36
2023-04-30T03:52:17.997Z,11.35
2023-04-30T03:55:20.026Z,11.34
2023-04-30T03:58:22.037Z,11.34
2023-04-30T04:01:24.130Z,11.33
2023-04-30T04:04:25.999Z,11.32
2023-04-30T04:07:28.868Z,11.31
2023-04-30T04:10:31.860Z,11.32
2023-04-30T04:13:33.865Z,11.30
2023-04-30T04:16:36.673Z,11.30
2023-04-30T04:19:38.517Z,11.29
2023-04-30T04:22:40.373Z,11.28
2023-04-30T04:25:43.747Z,11.29
2023-04-30T04:28:47.088Z,11.30
2023-04-30T04:31:50.448Z,11.32
2023-04-30T04:34:53.748Z,11.34
2023-04-30T04:37:55.877Z,11.36
2023-04-30T04:40:57.647Z,11.36
2023-04-30T04:44:01.154Z,11.36
2023-04-30T04:47:03.765Z,11.38
2023-04-30T04:50:07.141Z,11.39
2023-04-30T04:53:08.945Z,11.38
2023-04-30T04:56:10.676Z,11.38
2023-04-30T04:59:12.749Z,11.37
2023-04-30T05:02:14.500Z,11.36
2023-04-30T05:05:16.504Z,11.35
2023-04-30T05:08:18.315Z,11.34
2023-04-30T05:11:22.138Z,11.34
2023-04-30T05:14:24.876Z,11.35
2023-04-30T05:17:26.702Z,11.34
2023-04-30T05:20:28.558Z,11.35
2023-04-30T05:23:30.293Z,11.36
2023-04-30T05:26:31.983Z,11.38
2023-04-30T05:29:33.644Z,11.41
2023-04-30T05:32:35.380Z,11.43
2023-04-30T05:35:37.107Z,11.46
2023-04-30T05:38:38.868Z,11.49
2023-04-30T05:41:40.700Z,11.51
2023-04-30T05:44:42.428Z,11.50
2023-04-30T05:47:44.356Z,11.52
2023-04-30T05:50:46.095Z,11.55
2023-04-30T05:53:47.762Z,11.67
2023-04-30T05:56:49.571Z,11.82
2023-04-30T05:59:51.289Z,11.98
2023-04-30T06:02:53.100Z,12.16
2023-04-30T06:05:54.878Z,12.32
2023-04-30T06:08:57.102Z,12.47
2023-04-30T06:11:58.869Z,12.63
2023-04-30T06:15:00.772Z,12.75
2023-04-30T06:18:02.981Z,12.88
2023-04-30T06:21:04.705Z,13.03
2023-04-30T06:24:06.431Z,13.18
2023-04-30T06:27:08.178Z,13.35
2023-04-30T06:30:10.198Z,13.49
2023-04-30T06:33:11.953Z,13.62
2023-04-30T06:36:13.644Z,13.72
2023-04-30T06:39:16.092Z,13.84
2023-04-30T06:42:17.849Z,13.96
2023-04-30T06:45:20.003Z,14.00
2023-04-30T06:48:22.375Z,14.06
2023-04-30T06:51:24.063Z,14.18
2023-04-30T06:54:28.637Z,14.20
2023-04-30T06:57:31.285Z,14.25
2023-04-30T07:00:33.620Z,14.19
2023-04-30T07:03:35.691Z,14.15
2023-04-30T07:06:37.528Z,14.20
2023-04-30T07:09:39.392Z,14.33
2023-04-30T07:12:41.355Z,14.46
2023-04-30T07:15:43.236Z,14.58
2023-04-30T07:18:48.227Z,14.68
2023-04-30T07:21:49.857Z,14.84
2023-04-30T07:24:51.524Z,15.04
2023-04-30T07:27:54.755Z,15.25
2023-04-30T07:30:56.721Z,15.43
2023-04-30T07:33:58.460Z,15.64
2023-04-30T07:37:00.721Z,15.80
2023-04-30T07:40:03.136Z,15.90
2023-04-30T07:43:04.933Z,15.79
2023-04-30T07:46:06.947Z,15.84
2023-04-30T07:49:08.810Z,15.89
2023-04-30T07:52:11.884Z,15.73
2023-04-30T07:55:13.620Z,15.54
2023-04-30T07:58:15.425Z,15.25
2023-04-30T08:01:17.331Z,15.05
2023-04-30T08:04:19.077Z,15.01
2023-04-30T08:07:21.762Z,15.16
2023-04-30T08:10:23.570Z,15.18
2023-04-30T08:13:25.486Z,15.41
2023-04-30T08:16:27.518Z,15.71
2023-04-30T08:19:29.204Z,15.97
2023-04-30T08:22:31.007Z,15.92
2023-04-30T08:25:33.593Z,15.90
2023-04-30T08:28:35.679Z,16.15
2023-04-30T08:31:37.587Z,16.43
2023-04-30T08:34:42.962Z,16.70
2023-04-30T08:37:44.888Z,16.96
2023-04-30T08:40:56.183Z,17.20
2023-04-30T08:44:01.025Z,17.38
2023-04-30T08:47:03.146Z,17.53
2023-04-30T08:50:05.729Z,17.60
2023-04-30T08:53:08.602Z,17.42
2023-04-30T08:56:10.892Z,17.33
2023-04-30T08:59:13.141Z,17.37
2023-04-30T09:02:14.945Z,17.52
2023-04-30T09:05:16.648Z,17.73
2023-04-30T09:08:19.740Z,17.88
2023-04-30T09:11:25.852Z,17.87
2023-04-30T09:14:27.872Z,17.75
2023-04-30T09:17:30.408Z,17.83
2023-04-30T09:20:32.250Z,18.01
2023-04-30T09:23:33.993Z,17.87
2023-04-30T09:26:38.080Z,17.59
2023-04-30T09:29:39.830Z,17.60
2023-04-30T09:32:57.009Z,17.77
2023-04-30T09:36:08.651Z,18.01
2023-04-30T09:39:15.271Z,18.26
2023-04-30T09:42:19.001Z,18.37
2023-04-30T09:45:20.761Z,18.24
2023-04-30T09:48:24.044Z,18.39
2023-04-30T09:51:26.640Z,18.62
2023-04-30T09:54:30.263Z,18.55
2023-04-30T09:57:35.613Z,18.43
2023-04-30T10:00:38.980Z,18.60
2023-04-30T10:03:42.386Z,18.75
2023-04-30T10:06:45.504Z,18.95
2023-04-30T10:10:11.070Z,19.16
2023-04-30T10:13:18.301Z,19.39
2023-04-30T10:16:39.760Z,19.54
2023-04-30T10:19:47.933Z,19.73
2023-04-30T10:22:49.861Z,19.87
2023-04-30T10:25:52.315Z,19.98
2023-04-30T10:28:58.426Z,19.93
2023-04-30T10:32:00.700Z,19.99
2023-04-30T10:35:32.641Z,20.11
2023-04-30T10:38:37.259Z,20.25
2023-04-30T10:41:39.815Z,20.33
2023-04-30T10:44:41.637Z,20.42
2023-04-30T10:47:46.717Z,20.51
2023-04-30T10:50:50.655Z,20.59
2023-04-30T10:53:55.413Z,20.69
2023-04-30T10:57:13.476Z,20.63
2023-04-30T11:00:19.552Z,20.67
2023-04-30T11:03:21.657Z,20.68
2023-04-30T11:06:26.060Z,20.71
2023-04-30T11:09:39.453Z,20.80
2023-04-30T11:12:47.151Z,20.91
2023-04-30T11:15:48.892Z,21.00
2023-04-30T11:18:51.024Z,21.06
2023-04-30T11:22:12.996Z,21.09
2023-04-30T11:25:21.923Z,21.16
2023-04-30T11:28:26.146Z,21.23
2023-04-30T11:31:34.411Z,21.27
2023-04-30T11:34:37.417Z,21.28
2023-04-30T11:37:43.095Z,21.21
2023-04-30T11:40:48.332Z,21.22
2023-04-30T11:43:50.036Z,21.24
2023-04-30T11:46:52.538Z,21.30
2023-04-30T11:49:56.802Z,21.16
2023-04-30T11:53:04.764Z,21.20
2023-04-30T11:56:07.007Z,21.28
2023-04-30T11:59:12.030Z,21.33
2023-04-30T12:02:15.907Z,21.37
2023-04-30T12:05:19.923Z,21.39
2023-04-30T12:08:21.944Z,21.42
2023-04-30T12:11:29.387Z,21.31
2023-04-30T12:14:33.169Z,21.26
2023-04-30T12:17:35.569Z,21.24
2023-04-30T12:20:37.663Z,21.02
2023-04-30T12:23:39.696Z,21.03
2023-04-30T12:26:41.768Z,21.02
2023-04-30T12:29:45.861Z,20.81
2023-04-30T12:32:52.589Z,20.64
2023-04-30T12:35:57.347Z,20.67
2023-04-30T12:39:06.602Z,20.74
2023-04-30T12:42:08.584Z,20.76
2023-04-30T12:45:11.091Z,20.82
2023-04-30T12:48:14.665Z,20.80
2023-04-30T12:51:19.404Z,20.72
2023-04-30T12:54:26.084Z,20.69
2023-04-30T12:57:28.435Z,20.68
2023-04-30T13:00:45.643Z,20.72
2023-04-30T13:03:47.768Z,20.75
2023-04-30T13:06:49.614Z,20.80
2023-04-30T13:09:51.555Z,20.82
2023-04-30T13:12:53.477Z,20.86
2023-04-30T13:15:55.269Z,20.85
2023-04-30T13:18:56.939Z,20.84
2023-04-30T13:21:59.062Z,20.81
2023-04-30T13:25:00.744Z,20.80
2023-04-30T13:28:02.478Z,20.71
2023-04-30T13:31:04.231Z,20.66
2023-04-30T13:34:06.089Z,20.65
2023-04-30T13:37:08.259Z,20.65
2023-04-30T13:40:10.274Z,20.63
2023-04-30T13:43:11.963Z,20.57
2023-04-30T13:46:14.466Z,20.54
2023-04-30T13:49:16.220Z,20.50
2023-04-30T13:52:17.959Z,20.47
2023-04-30T13:55:19.814Z,20.46
2023-04-30T13:58:21.518Z,20.45
2023-04-30T14:01:23.288Z,20.40
2023-04-30T14:04:25.053Z,20.37
2023-04-30T14:07:26.825Z,20.37
2023-04-30T14:10:28.622Z,20.39
2023-04-30T14:13:30.529Z,20.36
2023-04-30T14:16:32.392Z,20.33
2023-04-30T14:19:34.415Z,20.30
2023-04-30T14:22:37.844Z,20.25
2023-04-30T14:25:39.757Z,20.20
2023-04-30T14:28:41.515Z,20.14
2023-04-30T14:31:43.223Z,20.06
2023-04-30T14:34:44.975Z,19.98
2023-04-30T14:37:46.629Z,19.89
2023-04-30T14:40:48.315Z,19.82
2023-04-30T14:43:52.008Z,19.70
2023-04-30T14:46:53.888Z,19.55
2023-04-30T14:49:58.433Z,19.42
2023-04-30T14:53:00.150Z,19.28
2023-04-30T14:56:03.049Z,19.17
2023-04-30T14:59:04.790Z,19.03
2023-04-30T15:02:06.599Z,18.88
2023-04-30T15:05:08.665Z,18.74
2023-04-30T15:08:10.356Z,18.59
2023-04-30T15:11:12.643Z,18.47
2023-04-30T15:14:16.275Z,18.33
2023-04-30T15:17:18.010Z,18.21
2023-04-30T15:20:19.824Z,18.09
2023-04-30T15:23:22.091Z,17.98
2023-04-30T15:26:25.265Z,17.89
2023-04-30T15:29:27.082Z,17.78
2023-04-30T15:32:29.295Z,17.69
2023-04-30T15:35:31.456Z,17.62
2023-04-30T15:38:33.934Z,17.55
2023-04-30T15:41:35.956Z,17.48
2023-04-30T15:44:38.063Z,17.43
2023-04-30T15:47:40.563Z,17.37
2023-04-30T15:50:42.339Z,17.33
2023-04-30T15:53:44.052Z,17.31
2023-04-30T15:56:47.184Z,17.27
2023-04-30T15:59:48.858Z,17.23
2023-04-30T16:02:51.738Z,17.17
2023-04-30T16:06:11.895Z,17.16
2023-04-30T16:09:17.423Z,17.10
2023-04-30T16:12:21.068Z,17.04
2023-04-30T16:15:24.838Z,16.98
2023-04-30T16:18:30.123Z,16.95
2023-04-30T16:21:36.630Z,16.91
2023-04-30T16:24:43.110Z,16.86
2023-04-30T16:27:46.404Z,16.82
2023-04-30T16:30:50.075Z,16.79
2023-04-30T16:33:53.217Z,16.75
2023-04-30T16:36:56.386Z,16.72
2023-04-30T16:40:00.468Z,16.68
2023-04-30T16:46:10.777Z,16.62
2023-04-30T16:49:13.869Z,16.59
2023-04-30T16:52:18.931Z,16.54
2023-04-30T16:55:22.045Z,16.53
2023-04-30T16:58:25.271Z,16.49
2023-04-30T17:01:28.367Z,16.45
2023-04-30T17:04:31.762Z,16.41
2023-04-30T17:07:34.755Z,16.36
2023-04-30T17:10:39.066Z,16.31
2023-04-30T17:13:43.770Z,16.25
2023-04-30T17:16:47.069Z,16.22
2023-04-30T17:19:50.032Z,16.16
2023-04-30T17:22:53.497Z,16.11
2023-04-30T17:25:56.536Z,16.05
2023-04-30T17:28:59.533Z,16.00
2023-04-30T17:32:02.637Z,15.97
2023-04-30T17:35:06.793Z,15.91
2023-04-30T17:38:09.816Z,15.86
2023-04-30T17:41:12.865Z,15.79
2023-04-30T17:44:16.856Z,15.73
2023-04-30T17:47:19.916Z,15.67
2023-04-30T17:50:23.015Z,15.58
2023-04-30T17:53:26.056Z,15.50
2023-04-30T17:56:33.047Z,15.43
2023-04-30T17:59:38.539Z,15.35
2023-04-30T18:02:41.893Z,15.24
2023-04-30T18:05:45.196Z,15.15
2023-04-30T18:08:48.167Z,15.05
2023-04-30T18:11:51.844Z,14.95
2023-04-30T18:14:55.021Z,14.84
2023-04-30T18:17:59.389Z,14.74
2023-04-30T18:21:03.742Z,14.62
2023-04-30T18:24:06.703Z,14.49
2023-04-30T18:27:10.203Z,14.38
2023-04-30T18:30:13.479Z,14.27
2023-04-30T18:33:16.439Z,14.15
2023-04-30T18:36:19.677Z,14.04
2023-04-30T18:39:22.780Z,13.95
2023-04-30T18:42:25.968Z,13.85
2023-04-30T18:45:29.047Z,13.76
2023-04-30T18:48:32.438Z,13.66
2023-04-30T18:51:35.495Z,13.59
2023-04-30T18:54:38.502Z,13.51
2023-04-30T18:57:42.461Z,13.43
2023-04-30T19:00:45.764Z,13.36
2023-04-30T19:03:48.857Z,13.28
2023-04-30T19:06:54.470Z,13.23
2023-04-30T19:09:58.421Z,13.18
2023-04-30T19:13:01.658Z,13.11
2023-04-30T19:16:04.771Z,13.07
2023-04-30T19:19:07.748Z,13.04
2023-04-30T19:22:11.711Z,12.96
2023-04-30T19:25:14.768Z,12.87
2023-04-30T19:28:17.772Z,12.79
2023-04-30T19:31:22.388Z,12.73
2023-04-30T19:34:28.496Z,12.68
2023-04-30T19:37:31.653Z,12.62
2023-04-30T19:40:34.681Z,12.56
2023-04-30T19:43:38.194Z,12.52
2023-04-30T19:46:42.418Z,12.49
2023-04-30T19:49:47.384Z,12.45
2023-04-30T19:52:50.387Z,12.38
2023-04-30T19:55:53.570Z,12.33
2023-04-30T19:58:56.894Z,12.29
2023-04-30T20:01:59.937Z,12.26
2023-04-30T20:05:04.895Z,12.21
2023-04-30T20:08:09.671Z,12.16
2023-04-30T20:11:12.820Z,12.12
2023-04-30T20:14:16.011Z,12.06
2023-04-30T20:17:19.204Z,11.98
2023-04-30T20:20:25.895Z,11.93
2023-04-30T20:23:28.927Z,11.87
2023-04-30T20:26:32.156Z,11.85
2023-04-30T20:29:36.025Z,11.79
2023-04-30T20:32:40.555Z,11.76
2023-04-30T20:35:45.671Z,11.69
2023-04-30T20:38:49.101Z,11.60
2023-04-30T20:41:53.392Z,11.54
2023-04-30T20:44:56.574Z,11.48
2023-04-30T20:47:59.568Z,11.43
2023-04-30T20:51:02.538Z,11.40
2023-04-30T20:54:05.706Z,11.34
2023-04-30T20:57:09.087Z,11.30
2023-04-30T21:00:13.362Z,11.27
2023-04-30T21:03:16.917Z,11.24
2023-04-30T21:06:20.415Z,11.18
2023-04-30T21:09:23.434Z,11.14
2023-04-30T21:12:28.035Z,11.09
2023-04-30T21:15:35.304Z,11.06
2023-04-30T21:18:38.445Z,11.03
2023-04-30T21:21:41.405Z,10.96
2023-04-30T21:24:44.393Z,10.91
2023-04-30T21:27:47.495Z,10.88
2023-04-30T21:30:50.563Z,10.87
2023-04-30T21:33:53.762Z,10.84
2023-04-30T21:36:57.120Z,10.82
2023-04-30T21:40:00.044Z,10.78
2023-04-30T21:43:03.863Z,10.76
2023-04-30T21:46:07.444Z,10.78
2023-04-30T21:49:10.553Z,10.75
2023-04-30T21:52:13.663Z,10.68
2023-04-30T21:55:17.190Z,10.61
2023-04-30T21:58:20.129Z,10.55
2023-04-30T22:01:27.552Z,10.52
2023-04-30T22:04:30.822Z,10.47
2023-04-30T22:07:34.233Z,10.45
2023-04-30T22:10:37.247Z,10.43
2023-04-30T22:13:40.230Z,10.45
2023-04-30T22:16:43.686Z,10.44
2023-04-30T22:19:46.794Z,10.37
2023-04-30T22:22:49.774Z,10.30
2023-04-30T22:25:53.420Z,10.24
2023-04-30T22:28:57.201Z,10.22
2023-04-30T22:32:01.546Z,10.19
2023-04-30T22:35:06.940Z,10.13
2023-04-30T22:38:11.054Z,10.09
2023-04-30T22:41:14.276Z,10.05
2023-04-30T22:44:17.971Z,10.00
2023-04-30T22:47:21.166Z,9.95
2023-04-30T22:50:24.180Z,9.92
2023-04-30T22:53:28.515Z,9.88
2023-04-30T22:56:31.796Z,9.84
2023-04-30T22:59:34.838Z,9.81
2023-04-30T23:02:37.879Z,9.80
2023-04-30T23:05:40.984Z,9.76
2023-04-30T23:08:44.384Z,9.71
2023-04-30T23:11:48.298Z,9.65
2023-04-30T23:14:51.539Z,9.63
2023-04-30T23:17:54.789Z,9.61
2023-04-30T23:20:59.016Z,9.60
2023-04-30T23:24:03.960Z,9.57
2023-04-30T23:27:08.124Z,9.55
2023-04-30T23:30:11.449Z,9.54
2023-04-30T23:33:14.461Z,9.52
2023-04-30T23:36:17.488Z,9.50
2023-04-30T23:39:20.596Z,9.49
2023-04-30T23:42:23.632Z,9.48
2023-04-30T23:45:26.668Z,9.46
2023-04-30T23:48:30.480Z,9.44
2023-04-30T23:51:33.554Z,9.41
2023-04-30T23:54:36.640Z,9.40
2023-04-30T23:57:39.621Z,9.40
